Time;durP1;ratioP1;P1;durP2;ratioP2;P2;SDS_P1;SDS_P2;PMS_P1;PMS_P2;Temp;Humidity;BMP_temperature;BMP_pressure;BME280_temperature;BME280_humidity;BME280_pressure;Samples;Min_cycle;Max_cycle;Signal;HPM_P1;HPM_P2
2022/04/08 00:00:26;;;;;;;1.85;1.4;;;;;;;8.21;100;93636.21;;;;
2022/04/08 00:01:27;;;;;;;1.2;1.1;;;;;;;8.08;100;93645.14;;;;
2022/04/08 00:02:28;;;;;;;1.2;1.1;;;;;;;8.08;100;93645.14;;;;
2022/04/08 00:03:28;;;;;;;1.2;1.1;;;;;;;8.08;100;93645.14;;;;
2022/04/08 00:04:30;;;;;;;1.2;1.1;;;;;;;8.08;100;93645.14;;;;
2022/04/08 00:05:31;;;;;;;1.2;1.1;;;;;;;8.08;100;93645.14;;;;
2022/04/08 00:06:31;;;;;;;1.2;1.1;;;;;;;8.08;100;93645.14;;;;
2022/04/08 00:07:32;;;;;;;1.2;1.1;;;;;;;8.08;100;93645.14;;;;
2022/04/08 00:08:32;;;;;;;1.2;1.1;;;;;;;8.08;100;93645.14;;;;
2022/04/08 00:09:33;;;;;;;1.2;1.1;;;;;;;8.08;100;93645.14;;;;
2022/04/08 00:10:33;;;;;;;1.2;1.1;;;;;;;8.08;100;93645.14;;;;
2022/04/08 00:11:34;;;;;;;3.45;1;;;;;;;8.08;100;93643.27;;;;
2022/04/08 00:12:34;;;;;;;3.45;1;;;;;;;8.08;100;93643.27;;;;
2022/04/08 00:13:35;;;;;;;3.45;1;;;;;;;8.08;100;93643.27;;;;
2022/04/08 00:14:35;;;;;;;3.45;1;;;;;;;8.08;100;93643.27;;;;
2022/04/08 00:15:38;;;;;;;3.45;1;;;;;;;8.08;100;93643.27;;;;
2022/04/08 00:16:38;;;;;;;3.45;1;;;;;;;8.08;100;93643.27;;;;
2022/04/08 00:17:39;;;;;;;3.45;1;;;;;;;8.08;100;93643.27;;;;
2022/04/08 00:18:39;;;;;;;3.45;1;;;;;;;8.08;100;93643.27;;;;
2022/04/08 00:19:40;;;;;;;3.45;1;;;;;;;8.08;100;93643.27;;;;
2022/04/08 00:20:40;;;;;;;3.45;1;;;;;;;8.08;100;93643.27;;;;
2022/04/08 00:21:41;;;;;;;3.45;1;;;;;;;8.08;100;93643.27;;;;
2022/04/08 00:22:42;;;;;;;1.8;1.05;;;;;;;8.05;100;93661.8;;;;
2022/04/08 00:23:42;;;;;;;1.8;1.05;;;;;;;8.05;100;93661.8;;;;
2022/04/08 00:24:43;;;;;;;1.8;1.05;;;;;;;8.05;100;93661.8;;;;
2022/04/08 00:25:44;;;;;;;1.8;1.05;;;;;;;8.05;100;93661.8;;;;
2022/04/08 00:26:45;;;;;;;1.8;1.05;;;;;;;8.05;100;93661.8;;;;
2022/04/08 00:27:46;;;;;;;1.8;1.05;;;;;;;8.05;100;93661.8;;;;
2022/04/08 00:28:46;;;;;;;1.8;1.05;;;;;;;8.05;100;93661.8;;;;
2022/04/08 00:29:47;;;;;;;1.8;1.05;;;;;;;8.05;100;93661.8;;;;
2022/04/08 00:30:47;;;;;;;1.8;1.05;;;;;;;8.05;100;93661.8;;;;
2022/04/08 00:31:50;;;;;;;1.8;1.05;;;;;;;8.05;100;93661.8;;;;
2022/04/08 00:32:51;;;;;;;1.6;1.1;;;;;;;8.03;100;93663.51;;;;
2022/04/08 00:33:51;;;;;;;1.6;1.1;;;;;;;8.03;100;93663.51;;;;
2022/04/08 00:34:52;;;;;;;1.6;1.1;;;;;;;8.03;100;93663.51;;;;
2022/04/08 00:35:52;;;;;;;1.6;1.1;;;;;;;8.03;100;93663.51;;;;
2022/04/08 00:36:54;;;;;;;1.6;1.1;;;;;;;8.03;100;93663.51;;;;
2022/04/08 00:37:56;;;;;;;1.6;1.1;;;;;;;8.03;100;93663.51;;;;
2022/04/08 00:38:57;;;;;;;1.6;1.1;;;;;;;8.03;100;93663.51;;;;
2022/04/08 00:39:57;;;;;;;1.6;1.1;;;;;;;8.03;100;93663.51;;;;
2022/04/08 00:40:58;;;;;;;1.6;1.1;;;;;;;8.03;100;93663.51;;;;
2022/04/08 00:41:59;;;;;;;1.6;1.1;;;;;;;8.03;100;93663.51;;;;
2022/04/08 00:43:00;;;;;;;1.6;1.1;;;;;;;8.03;100;93663.51;;;;
2022/04/08 00:44:10;;;;;;;1.8;1.1;;;;;;;8;100;93669.83;;;;
2022/04/08 00:45:10;;;;;;;1.8;1.1;;;;;;;8;100;93669.83;;;;
2022/04/08 00:46:11;;;;;;;1.8;1.1;;;;;;;8;100;93669.83;;;;
2022/04/08 00:47:11;;;;;;;1.8;1.1;;;;;;;8;100;93669.83;;;;
2022/04/08 00:48:12;;;;;;;1.8;1.1;;;;;;;8;100;93669.83;;;;
2022/04/08 00:49:12;;;;;;;1.8;1.1;;;;;;;8;100;93669.83;;;;
2022/04/08 00:50:13;;;;;;;1.8;1.1;;;;;;;8;100;93669.83;;;;
2022/04/08 00:51:14;;;;;;;1.8;1.1;;;;;;;8;100;93669.83;;;;
2022/04/08 00:52:15;;;;;;;1.8;1.1;;;;;;;8;100;93669.83;;;;
2022/04/08 00:53:15;;;;;;;1.8;1.1;;;;;;;8;100;93669.83;;;;
2022/04/08 00:54:16;;;;;;;1.2;1.1;;;;;;;7.89;100;93701.73;;;;
2022/04/08 00:55:17;;;;;;;1.2;1.1;;;;;;;7.89;100;93701.73;;;;
2022/04/08 00:56:18;;;;;;;1.2;1.1;;;;;;;7.89;100;93701.73;;;;
2022/04/08 00:57:19;;;;;;;1.2;1.1;;;;;;;7.89;100;93701.73;;;;
2022/04/08 00:58:20;;;;;;;1.2;1.1;;;;;;;7.89;100;93701.73;;;;
2022/04/08 00:59:20;;;;;;;1.2;1.1;;;;;;;7.89;100;93701.73;;;;
2022/04/08 01:00:22;;;;;;;1.2;1.1;;;;;;;7.89;100;93701.73;;;;
2022/04/08 01:01:23;;;;;;;1.2;1.1;;;;;;;7.89;100;93701.73;;;;
2022/04/08 01:02:25;;;;;;;1.2;1.1;;;;;;;7.89;100;93701.73;;;;
2022/04/08 01:03:28;;;;;;;1.2;1.1;;;;;;;7.89;100;93701.73;;;;
2022/04/08 01:04:28;;;;;;;1.2;1.1;;;;;;;7.89;100;93701.73;;;;
2022/04/08 01:05:29;;;;;;;2.2;1.25;;;;;;;7.76;100;93706.07;;;;
2022/04/08 01:06:29;;;;;;;2.2;1.25;;;;;;;7.76;100;93706.07;;;;
2022/04/08 01:07:30;;;;;;;2.2;1.25;;;;;;;7.76;100;93706.07;;;;
2022/04/08 01:08:31;;;;;;;2.2;1.25;;;;;;;7.76;100;93706.07;;;;
2022/04/08 01:09:34;;;;;;;2.2;1.25;;;;;;;7.76;100;93706.07;;;;
2022/04/08 01:10:35;;;;;;;2.2;1.25;;;;;;;7.76;100;93706.07;;;;
2022/04/08 01:11:37;;;;;;;2.2;1.25;;;;;;;7.76;100;93706.07;;;;
2022/04/08 01:12:38;;;;;;;2.2;1.25;;;;;;;7.76;100;93706.07;;;;
2022/04/08 01:13:38;;;;;;;2.2;1.25;;;;;;;7.76;100;93706.07;;;;
2022/04/08 01:14:39;;;;;;;2.2;1.25;;;;;;;7.76;100;93706.07;;;;
2022/04/08 01:15:39;;;;;;;3.8;1.2;;;;;;;7.67;100;93733.65;;;;
2022/04/08 01:16:40;;;;;;;3.8;1.2;;;;;;;7.67;100;93733.65;;;;
2022/04/08 01:17:40;;;;;;;3.8;1.2;;;;;;;7.67;100;93733.65;;;;
2022/04/08 01:18:41;;;;;;;3.8;1.2;;;;;;;7.67;100;93733.65;;;;
2022/04/08 01:19:41;;;;;;;3.8;1.2;;;;;;;7.67;100;93733.65;;;;
2022/04/08 01:20:42;;;;;;;3.8;1.2;;;;;;;7.67;100;93733.65;;;;
2022/04/08 01:21:42;;;;;;;3.8;1.2;;;;;;;7.67;100;93733.65;;;;
2022/04/08 01:22:43;;;;;;;3.8;1.2;;;;;;;7.67;100;93733.65;;;;
2022/04/08 01:23:44;;;;;;;3.8;1.2;;;;;;;7.67;100;93733.65;;;;
2022/04/08 01:24:47;;;;;;;3.8;1.2;;;;;;;7.67;100;93733.65;;;;
2022/04/08 01:25:48;;;;;;;3.8;1.2;;;;;;;7.67;100;93733.65;;;;
2022/04/08 01:26:49;;;;;;;2.900001;1.5;;;;;;;7.55;100;93735.18;;;;
2022/04/08 01:27:51;;;;;;;2.900001;1.5;;;;;;;7.55;100;93735.18;;;;
2022/04/08 01:28:52;;;;;;;2.900001;1.5;;;;;;;7.55;100;93735.18;;;;
2022/04/08 01:29:54;;;;;;;2.900001;1.5;;;;;;;7.55;100;93735.18;;;;
2022/04/08 01:30:54;;;;;;;2.900001;1.5;;;;;;;7.55;100;93735.18;;;;
2022/04/08 01:31:55;;;;;;;2.900001;1.5;;;;;;;7.55;100;93735.18;;;;
2022/04/08 01:32:55;;;;;;;2.900001;1.5;;;;;;;7.55;100;93735.18;;;;
2022/04/08 01:33:56;;;;;;;2.900001;1.5;;;;;;;7.55;100;93735.18;;;;
2022/04/08 01:34:57;;;;;;;2.900001;1.5;;;;;;;7.55;100;93735.18;;;;
2022/04/08 01:35:57;;;;;;;2.900001;1.5;;;;;;;7.55;100;93735.18;;;;
2022/04/08 01:36:58;;;;;;;3.95;1.6;;;;;;;7.42;100;93739.2;;;;
2022/04/08 01:37:58;;;;;;;3.95;1.6;;;;;;;7.42;100;93739.2;;;;
2022/04/08 01:38:59;;;;;;;3.95;1.6;;;;;;;7.42;100;93739.2;;;;
2022/04/08 01:39:59;;;;;;;3.95;1.6;;;;;;;7.42;100;93739.2;;;;
2022/04/08 01:41:00;;;;;;;3.95;1.6;;;;;;;7.42;100;93739.2;;;;
2022/04/08 01:42:01;;;;;;;3.95;1.6;;;;;;;7.42;100;93739.2;;;;
2022/04/08 01:43:02;;;;;;;3.95;1.6;;;;;;;7.42;100;93739.2;;;;
2022/04/08 01:44:02;;;;;;;3.95;1.6;;;;;;;7.42;100;93739.2;;;;
2022/04/08 01:45:03;;;;;;;3.95;1.6;;;;;;;7.42;100;93739.2;;;;
2022/04/08 01:46:05;;;;;;;3.95;1.6;;;;;;;7.42;100;93739.2;;;;
2022/04/08 01:47:05;;;;;;;3.95;1.6;;;;;;;7.42;100;93739.2;;;;
2022/04/08 01:48:06;;;;;;;3.85;1.7;;;;;;;7.3;100;93754.67;;;;
2022/04/08 01:49:07;;;;;;;3.85;1.7;;;;;;;7.3;100;93754.67;;;;
2022/04/08 01:50:08;;;;;;;3.85;1.7;;;;;;;7.3;100;93754.67;;;;
2022/04/08 01:51:09;;;;;;;3.85;1.7;;;;;;;7.3;100;93754.67;;;;
2022/04/08 01:52:09;;;;;;;3.85;1.7;;;;;;;7.3;100;93754.67;;;;
2022/04/08 01:53:11;;;;;;;3.85;1.7;;;;;;;7.3;100;93754.67;;;;
2022/04/08 01:54:12;;;;;;;3.85;1.7;;;;;;;7.3;100;93754.67;;;;
2022/04/08 01:55:12;;;;;;;3.85;1.7;;;;;;;7.3;100;93754.67;;;;
2022/04/08 01:56:13;;;;;;;3.85;1.7;;;;;;;7.3;100;93754.67;;;;
2022/04/08 01:57:16;;;;;;;3.85;1.7;;;;;;;7.3;100;93754.67;;;;
2022/04/08 01:58:16;;;;;;;3.85;2.15;;;;;;;7.2;100;93772.81;;;;
2022/04/08 01:59:16;;;;;;;3.85;2.15;;;;;;;7.2;100;93772.81;;;;
2022/04/08 02:00:17;;;;;;;3.85;2.15;;;;;;;7.2;100;93772.81;;;;
2022/04/08 02:01:17;;;;;;;3.85;2.15;;;;;;;7.2;100;93772.81;;;;
2022/04/08 02:02:18;;;;;;;3.85;2.15;;;;;;;7.2;100;93772.81;;;;
2022/04/08 02:03:20;;;;;;;3.85;2.15;;;;;;;7.2;100;93772.81;;;;
2022/04/08 02:04:21;;;;;;;3.85;2.15;;;;;;;7.2;100;93772.81;;;;
2022/04/08 02:05:21;;;;;;;3.85;2.15;;;;;;;7.2;100;93772.81;;;;
2022/04/08 02:06:22;;;;;;;3.85;2.15;;;;;;;7.2;100;93772.81;;;;
2022/04/08 02:07:22;;;;;;;3.85;2.15;;;;;;;7.2;100;93772.81;;;;
2022/04/08 02:08:23;;;;;;;3.85;2.15;;;;;;;7.2;100;93772.81;;;;
2022/04/08 02:09:23;;;;;;;6.599999;2;;;;;;;7.13;100;93775.81;;;;
2022/04/08 02:10:25;;;;;;;6.599999;2;;;;;;;7.13;100;93775.81;;;;
2022/04/08 02:11:26;;;;;;;6.599999;2;;;;;;;7.13;100;93775.81;;;;
2022/04/08 02:12:26;;;;;;;6.599999;2;;;;;;;7.13;100;93775.81;;;;
2022/04/08 02:13:27;;;;;;;6.599999;2;;;;;;;7.13;100;93775.81;;;;
2022/04/08 02:14:27;;;;;;;6.599999;2;;;;;;;7.13;100;93775.81;;;;
2022/04/08 02:15:28;;;;;;;6.599999;2;;;;;;;7.13;100;93775.81;;;;
2022/04/08 02:16:32;;;;;;;6.599999;2;;;;;;;7.13;100;93775.81;;;;
2022/04/08 02:17:33;;;;;;;6.599999;2;;;;;;;7.13;100;93775.81;;;;
2022/04/08 02:18:33;;;;;;;6.599999;2;;;;;;;7.13;100;93775.81;;;;
2022/04/08 02:19:34;;;;;;;3.7;1.95;;;;;;;7.05;100;93790.07;;;;
2022/04/08 02:20:35;;;;;;;3.7;1.95;;;;;;;7.05;100;93790.07;;;;
2022/04/08 02:21:35;;;;;;;3.7;1.95;;;;;;;7.05;100;93790.07;;;;
2022/04/08 02:22:36;;;;;;;3.7;1.95;;;;;;;7.05;100;93790.07;;;;
2022/04/08 02:23:37;;;;;;;3.7;1.95;;;;;;;7.05;100;93790.07;;;;
2022/04/08 02:24:37;;;;;;;3.7;1.95;;;;;;;7.05;100;93790.07;;;;
2022/04/08 02:25:38;;;;;;;3.7;1.95;;;;;;;7.05;100;93790.07;;;;
2022/04/08 02:26:38;;;;;;;3.7;1.95;;;;;;;7.05;100;93790.07;;;;
2022/04/08 02:27:39;;;;;;;3.7;1.95;;;;;;;7.05;100;93790.07;;;;
2022/04/08 02:28:40;;;;;;;3.7;1.95;;;;;;;7.05;100;93790.07;;;;
2022/04/08 02:29:40;;;;;;;3.7;1.95;;;;;;;7.05;100;93790.07;;;;
2022/04/08 02:30:41;;;;;;;6.299999;2.5;;;;;;;6.97;100;93800.85;;;;
2022/04/08 02:31:41;;;;;;;6.299999;2.5;;;;;;;6.97;100;93800.85;;;;
2022/04/08 02:32:42;;;;;;;6.299999;2.5;;;;;;;6.97;100;93800.85;;;;
2022/04/08 02:33:42;;;;;;;6.299999;2.5;;;;;;;6.97;100;93800.85;;;;
2022/04/08 02:34:43;;;;;;;6.299999;2.5;;;;;;;6.97;100;93800.85;;;;
2022/04/08 02:35:43;;;;;;;6.299999;2.5;;;;;;;6.97;100;93800.85;;;;
2022/04/08 02:36:44;;;;;;;6.299999;2.5;;;;;;;6.97;100;93800.85;;;;
2022/04/08 02:37:44;;;;;;;6.299999;2.5;;;;;;;6.97;100;93800.85;;;;
2022/04/08 02:38:45;;;;;;;6.299999;2.5;;;;;;;6.97;100;93800.85;;;;
2022/04/08 02:39:45;;;;;;;6.299999;2.5;;;;;;;6.97;100;93800.85;;;;
2022/04/08 02:40:46;;;;;;;6.299999;2.5;;;;;;;6.97;100;93800.85;;;;
2022/04/08 02:41:46;;;;;;;6.549999;2.45;;;;;;;6.85;100;93804.99;;;;
2022/04/08 02:42:47;;;;;;;6.549999;2.45;;;;;;;6.85;100;93804.99;;;;
2022/04/08 02:43:48;;;;;;;6.549999;2.45;;;;;;;6.85;100;93804.99;;;;
2022/04/08 02:44:48;;;;;;;6.549999;2.45;;;;;;;6.85;100;93804.99;;;;
2022/04/08 02:45:49;;;;;;;6.549999;2.45;;;;;;;6.85;100;93804.99;;;;
2022/04/08 02:46:49;;;;;;;6.549999;2.45;;;;;;;6.85;100;93804.99;;;;
2022/04/08 02:47:50;;;;;;;6.549999;2.45;;;;;;;6.85;100;93804.99;;;;
2022/04/08 02:48:50;;;;;;;6.549999;2.45;;;;;;;6.85;100;93804.99;;;;
2022/04/08 02:49:51;;;;;;;6.549999;2.45;;;;;;;6.85;100;93804.99;;;;
2022/04/08 02:50:51;;;;;;;6.549999;2.45;;;;;;;6.85;100;93804.99;;;;
2022/04/08 02:51:52;;;;;;;5.65;2.5;;;;;;;6.73;100;93811.53;;;;
2022/04/08 02:52:53;;;;;;;5.65;2.5;;;;;;;6.73;100;93811.53;;;;
2022/04/08 02:53:53;;;;;;;5.65;2.5;;;;;;;6.73;100;93811.53;;;;
2022/04/08 02:54:54;;;;;;;5.65;2.5;;;;;;;6.73;100;93811.53;;;;
2022/04/08 02:55:54;;;;;;;5.65;2.5;;;;;;;6.73;100;93811.53;;;;
2022/04/08 02:56:55;;;;;;;5.65;2.5;;;;;;;6.73;100;93811.53;;;;
2022/04/08 02:57:55;;;;;;;5.65;2.5;;;;;;;6.73;100;93811.53;;;;
2022/04/08 02:58:57;;;;;;;5.65;2.5;;;;;;;6.73;100;93811.53;;;;
2022/04/08 02:59:57;;;;;;;5.65;2.5;;;;;;;6.73;100;93811.53;;;;
2022/04/08 03:00:59;;;;;;;5.65;2.5;;;;;;;6.73;100;93811.53;;;;
2022/04/08 03:02:00;;;;;;;5.65;2.5;;;;;;;6.73;100;93811.53;;;;
2022/04/08 03:03:00;;;;;;;5.6;2.2;;;;;;;6.65;100;93822.71;;;;
2022/04/08 03:04:02;;;;;;;5.6;2.2;;;;;;;6.65;100;93822.71;;;;
2022/04/08 03:05:06;;;;;;;5.6;2.2;;;;;;;6.65;100;93822.71;;;;
2022/04/08 03:06:07;;;;;;;5.6;2.2;;;;;;;6.65;100;93822.71;;;;
2022/04/08 03:07:08;;;;;;;5.6;2.2;;;;;;;6.65;100;93822.71;;;;
2022/04/08 03:08:09;;;;;;;5.6;2.2;;;;;;;6.65;100;93822.71;;;;
2022/04/08 03:09:09;;;;;;;5.6;2.2;;;;;;;6.65;100;93822.71;;;;
2022/04/08 03:10:10;;;;;;;5.6;2.2;;;;;;;6.65;100;93822.71;;;;
2022/04/08 03:11:12;;;;;;;5.6;2.2;;;;;;;6.65;100;93822.71;;;;
2022/04/08 03:12:13;;;;;;;5.6;2.2;;;;;;;6.65;100;93822.71;;;;
2022/04/08 03:13:13;;;;;;;6.999999;2.6;;;;;;;6.6;100;93836.97;;;;
2022/04/08 03:14:13;;;;;;;6.999999;2.6;;;;;;;6.6;100;93836.97;;;;
2022/04/08 03:15:14;;;;;;;6.999999;2.6;;;;;;;6.6;100;93836.97;;;;
2022/04/08 03:16:14;;;;;;;6.999999;2.6;;;;;;;6.6;100;93836.97;;;;
2022/04/08 03:17:15;;;;;;;6.999999;2.6;;;;;;;6.6;100;93836.97;;;;
2022/04/08 03:18:15;;;;;;;6.999999;2.6;;;;;;;6.6;100;93836.97;;;;
2022/04/08 03:19:18;;;;;;;6.999999;2.6;;;;;;;6.6;100;93836.97;;;;
2022/04/08 03:20:18;;;;;;;6.999999;2.6;;;;;;;6.6;100;93836.97;;;;
2022/04/08 03:21:19;;;;;;;6.999999;2.6;;;;;;;6.6;100;93836.97;;;;
2022/04/08 03:22:20;;;;;;;6.999999;2.6;;;;;;;6.6;100;93836.97;;;;
2022/04/08 03:23:21;;;;;;;6.999999;2.6;;;;;;;6.6;100;93836.97;;;;
2022/04/08 03:24:21;;;;;;;7.399999;2.8;;;;;;;6.62;100;93841.02;;;;
2022/04/08 03:25:22;;;;;;;7.399999;2.8;;;;;;;6.62;100;93841.02;;;;
2022/04/08 03:26:23;;;;;;;7.399999;2.8;;;;;;;6.62;100;93841.02;;;;
2022/04/08 03:27:23;;;;;;;7.399999;2.8;;;;;;;6.62;100;93841.02;;;;
2022/04/08 03:28:24;;;;;;;7.399999;2.8;;;;;;;6.62;100;93841.02;;;;
2022/04/08 03:29:24;;;;;;;7.399999;2.8;;;;;;;6.62;100;93841.02;;;;
2022/04/08 03:30:27;;;;;;;7.399999;2.8;;;;;;;6.62;100;93841.02;;;;
2022/04/08 03:31:27;;;;;;;7.399999;2.8;;;;;;;6.62;100;93841.02;;;;
2022/04/08 03:32:29;;;;;;;7.399999;2.8;;;;;;;6.62;100;93841.02;;;;
2022/04/08 03:33:30;;;;;;;7.399999;2.8;;;;;;;6.62;100;93841.02;;;;
2022/04/08 03:34:30;;;;;;;8.349999;2.6;;;;;;;6.6;100;93845.43;;;;
2022/04/08 03:35:31;;;;;;;8.349999;2.6;;;;;;;6.6;100;93845.43;;;;
2022/04/08 03:36:31;;;;;;;8.349999;2.6;;;;;;;6.6;100;93845.43;;;;
2022/04/08 03:37:32;;;;;;;8.349999;2.6;;;;;;;6.6;100;93845.43;;;;
2022/04/08 03:38:32;;;;;;;8.349999;2.6;;;;;;;6.6;100;93845.43;;;;
2022/04/08 03:39:33;;;;;;;8.349999;2.6;;;;;;;6.6;100;93845.43;;;;
2022/04/08 03:40:33;;;;;;;8.349999;2.6;;;;;;;6.6;100;93845.43;;;;
2022/04/08 03:41:34;;;;;;;8.349999;2.6;;;;;;;6.6;100;93845.43;;;;
2022/04/08 03:42:35;;;;;;;8.349999;2.6;;;;;;;6.6;100;93845.43;;;;
2022/04/08 03:43:35;;;;;;;8.349999;2.6;;;;;;;6.6;100;93845.43;;;;
2022/04/08 03:44:36;;;;;;;8.349999;2.6;;;;;;;6.6;100;93845.43;;;;
2022/04/08 03:45:36;;;;;;;7.099999;3.1;;;;;;;6.51;100;93857.08;;;;
2022/04/08 03:46:37;;;;;;;7.099999;3.1;;;;;;;6.51;100;93857.08;;;;
2022/04/08 03:47:37;;;;;;;7.099999;3.1;;;;;;;6.51;100;93857.08;;;;
2022/04/08 03:48:39;;;;;;;7.099999;3.1;;;;;;;6.51;100;93857.08;;;;
2022/04/08 03:49:40;;;;;;;7.099999;3.1;;;;;;;6.51;100;93857.08;;;;
2022/04/08 03:50:40;;;;;;;7.099999;3.1;;;;;;;6.51;100;93857.08;;;;
2022/04/08 03:51:41;;;;;;;7.099999;3.1;;;;;;;6.51;100;93857.08;;;;
2022/04/08 03:52:43;;;;;;;7.099999;3.1;;;;;;;6.51;100;93857.08;;;;
2022/04/08 03:53:43;;;;;;;7.099999;3.1;;;;;;;6.51;100;93857.08;;;;
2022/04/08 03:54:44;;;;;;;7.099999;3.1;;;;;;;6.51;100;93857.08;;;;
2022/04/08 03:55:44;;;;;;;4.5;2.05;;;;;;;6.5;100;93882.28;;;;
2022/04/08 03:56:45;;;;;;;4.5;2.05;;;;;;;6.5;100;93882.28;;;;
2022/04/08 03:57:46;;;;;;;4.5;2.05;;;;;;;6.5;100;93882.28;;;;
2022/04/08 03:58:47;;;;;;;4.5;2.05;;;;;;;6.5;100;93882.28;;;;
2022/04/08 03:59:49;;;;;;;4.5;2.05;;;;;;;6.5;100;93882.28;;;;
2022/04/08 04:00:50;;;;;;;4.5;2.05;;;;;;;6.5;100;93882.28;;;;
2022/04/08 04:01:50;;;;;;;4.5;2.05;;;;;;;6.5;100;93882.28;;;;
2022/04/08 04:02:50;;;;;;;4.5;2.05;;;;;;;6.5;100;93882.28;;;;
2022/04/08 04:03:51;;;;;;;4.5;2.05;;;;;;;6.5;100;93882.28;;;;
2022/04/08 04:04:51;;;;;;;4.5;2.05;;;;;;;6.5;100;93882.28;;;;
2022/04/08 04:05:52;;;;;;;4.5;2.05;;;;;;;6.5;100;93882.28;;;;
2022/04/08 04:06:52;;;;;;;5.549999;2;;;;;;;6.37;100;93883.94;;;;
2022/04/08 04:07:53;;;;;;;5.549999;2;;;;;;;6.37;100;93883.94;;;;
2022/04/08 04:08:53;;;;;;;5.549999;2;;;;;;;6.37;100;93883.94;;;;
2022/04/08 04:09:54;;;;;;;5.549999;2;;;;;;;6.37;100;93883.94;;;;
2022/04/08 04:10:55;;;;;;;5.549999;2;;;;;;;6.37;100;93883.94;;;;
2022/04/08 04:11:55;;;;;;;5.549999;2;;;;;;;6.37;100;93883.94;;;;
2022/04/08 04:12:56;;;;;;;5.549999;2;;;;;;;6.37;100;93883.94;;;;
2022/04/08 04:13:56;;;;;;;5.549999;2;;;;;;;6.37;100;93883.94;;;;
2022/04/08 04:14:57;;;;;;;5.549999;2;;;;;;;6.37;100;93883.94;;;;
2022/04/08 04:15:57;;;;;;;5.549999;2;;;;;;;6.37;100;93883.94;;;;
2022/04/08 04:16:58;;;;;;;3.95;1.8;;;;;;;6.25;100;93881.47;;;;
2022/04/08 04:17:58;;;;;;;3.95;1.8;;;;;;;6.25;100;93881.47;;;;
2022/04/08 04:18:59;;;;;;;3.95;1.8;;;;;;;6.25;100;93881.47;;;;
2022/04/08 04:19:59;;;;;;;3.95;1.8;;;;;;;6.25;100;93881.47;;;;
2022/04/08 04:20:59;;;;;;;3.95;1.8;;;;;;;6.25;100;93881.47;;;;
2022/04/08 04:22:00;;;;;;;3.95;1.8;;;;;;;6.25;100;93881.47;;;;
2022/04/08 04:23:01;;;;;;;3.95;1.8;;;;;;;6.25;100;93881.47;;;;
2022/04/08 04:24:01;;;;;;;3.95;1.8;;;;;;;6.25;100;93881.47;;;;
2022/04/08 04:25:02;;;;;;;3.95;1.8;;;;;;;6.25;100;93881.47;;;;
2022/04/08 04:26:03;;;;;;;3.95;1.8;;;;;;;6.25;100;93881.47;;;;
2022/04/08 04:27:04;;;;;;;3.95;1.8;;;;;;;6.25;100;93881.47;;;;
2022/04/08 04:28:05;;;;;;;4.15;1.85;;;;;;;6.18;100;93893.3;;;;
2022/04/08 04:29:05;;;;;;;4.15;1.85;;;;;;;6.18;100;93893.3;;;;
2022/04/08 04:30:06;;;;;;;4.15;1.85;;;;;;;6.18;100;93893.3;;;;
2022/04/08 04:31:07;;;;;;;4.15;1.85;;;;;;;6.18;100;93893.3;;;;
2022/04/08 04:32:07;;;;;;;4.15;1.85;;;;;;;6.18;100;93893.3;;;;
2022/04/08 04:33:09;;;;;;;4.15;1.85;;;;;;;6.18;100;93893.3;;;;
2022/04/08 04:34:09;;;;;;;4.15;1.85;;;;;;;6.18;100;93893.3;;;;
2022/04/08 04:35:10;;;;;;;4.15;1.85;;;;;;;6.18;100;93893.3;;;;
2022/04/08 04:36:11;;;;;;;4.15;1.85;;;;;;;6.18;100;93893.3;;;;
2022/04/08 04:37:12;;;;;;;4.15;1.85;;;;;;;6.18;100;93893.3;;;;
2022/04/08 04:38:13;;;;;;;4.15;1.85;;;;;;;6.18;100;93893.3;;;;
2022/04/08 04:39:13;;;;;;;6.799999;2;;;;;;;6.2;100;93892.94;;;;
2022/04/08 04:40:13;;;;;;;6.799999;2;;;;;;;6.2;100;93892.94;;;;
2022/04/08 04:41:15;;;;;;;6.799999;2;;;;;;;6.2;100;93892.94;;;;
2022/04/08 04:42:15;;;;;;;6.799999;2;;;;;;;6.2;100;93892.94;;;;
2022/04/08 04:43:16;;;;;;;6.799999;2;;;;;;;6.2;100;93892.94;;;;
2022/04/08 04:44:16;;;;;;;6.799999;2;;;;;;;6.2;100;93892.94;;;;
2022/04/08 04:45:18;;;;;;;6.799999;2;;;;;;;6.2;100;93892.94;;;;
2022/04/08 04:46:19;;;;;;;6.799999;2;;;;;;;6.2;100;93892.94;;;;
2022/04/08 04:47:19;;;;;;;6.799999;2;;;;;;;6.2;100;93892.94;;;;
2022/04/08 04:48:22;;;;;;;6.799999;2;;;;;;;6.2;100;93892.94;;;;
2022/04/08 04:49:22;;;;;;;5;1.95;;;;;;;6.24;100;93913.36;;;;
2022/04/08 04:50:23;;;;;;;5;1.95;;;;;;;6.24;100;93913.36;;;;
2022/04/08 04:51:23;;;;;;;5;1.95;;;;;;;6.24;100;93913.36;;;;
2022/04/08 04:52:24;;;;;;;5;1.95;;;;;;;6.24;100;93913.36;;;;
2022/04/08 04:53:25;;;;;;;5;1.95;;;;;;;6.24;100;93913.36;;;;
2022/04/08 04:54:25;;;;;;;5;1.95;;;;;;;6.24;100;93913.36;;;;
2022/04/08 04:55:26;;;;;;;5;1.95;;;;;;;6.24;100;93913.36;;;;
2022/04/08 04:56:26;;;;;;;5;1.95;;;;;;;6.24;100;93913.36;;;;
2022/04/08 04:57:27;;;;;;;5;1.95;;;;;;;6.24;100;93913.36;;;;
2022/04/08 04:58:27;;;;;;;5;1.95;;;;;;;6.24;100;93913.36;;;;
2022/04/08 04:59:28;;;;;;;5;1.95;;;;;;;6.24;100;93913.36;;;;
2022/04/08 05:00:28;;;;;;;5;1.95;;;;;;;6.24;100;93913.36;;;;
2022/04/08 05:01:29;;;;;;;5;1.95;;;;;;;6.24;100;93913.36;;;;
2022/04/08 05:02:30;;;;;;;5;1.95;;;;;;;6.24;100;93913.36;;;;
2022/04/08 05:03:30;;;;;;;5;1.95;;;;;;;6.24;100;93913.36;;;;
2022/04/08 05:04:31;;;;;;;5;1.95;;;;;;;6.24;100;93913.36;;;;
2022/04/08 05:05:31;;;;;;;5;1.95;;;;;;;6.24;100;93913.36;;;;
2022/04/08 05:06:34;;;;;;;5;1.95;;;;;;;6.24;100;93913.36;;;;
2022/04/08 05:07:35;;;;;;;5;1.95;;;;;;;6.24;100;93913.36;;;;
2022/04/08 05:08:35;;;;;;;5;1.95;;;;;;;6.24;100;93913.36;;;;
2022/04/08 05:09:38;;;;;;;5;1.95;;;;;;;6.24;100;93913.36;;;;
2022/04/08 05:10:39;;;;;;;7.149999;2.3;;;;;;;6.24;100;93931.16;;;;
2022/04/08 05:11:39;;;;;;;7.149999;2.3;;;;;;;6.24;100;93931.16;;;;
2022/04/08 05:12:40;;;;;;;7.149999;2.3;;;;;;;6.24;100;93931.16;;;;
2022/04/08 05:13:40;;;;;;;7.149999;2.3;;;;;;;6.24;100;93931.16;;;;
2022/04/08 05:14:41;;;;;;;7.149999;2.3;;;;;;;6.24;100;93931.16;;;;
2022/04/08 05:15:42;;;;;;;7.149999;2.3;;;;;;;6.24;100;93931.16;;;;
2022/04/08 05:16:43;;;;;;;7.149999;2.3;;;;;;;6.24;100;93931.16;;;;
2022/04/08 05:17:45;;;;;;;7.149999;2.3;;;;;;;6.24;100;93931.16;;;;
2022/04/08 05:18:45;;;;;;;7.149999;2.3;;;;;;;6.24;100;93931.16;;;;
2022/04/08 05:19:46;;;;;;;7.149999;2.3;;;;;;;6.24;100;93931.16;;;;
2022/04/08 05:20:48;;;;;;;7.149999;2.3;;;;;;;6.24;100;93931.16;;;;
2022/04/08 05:21:48;;;;;;;4.9;2;;;;;;;6.36;100;93954.71;;;;
2022/04/08 05:22:49;;;;;;;4.9;2;;;;;;;6.36;100;93954.71;;;;
2022/04/08 05:23:49;;;;;;;4.9;2;;;;;;;6.36;100;93954.71;;;;
2022/04/08 05:24:50;;;;;;;4.9;2;;;;;;;6.36;100;93954.71;;;;
2022/04/08 05:25:51;;;;;;;4.9;2;;;;;;;6.36;100;93954.71;;;;
2022/04/08 05:26:51;;;;;;;4.9;2;;;;;;;6.36;100;93954.71;;;;
2022/04/08 05:27:52;;;;;;;4.9;2;;;;;;;6.36;100;93954.71;;;;
2022/04/08 05:28:52;;;;;;;4.9;2;;;;;;;6.36;100;93954.71;;;;
2022/04/08 05:29:53;;;;;;;4.9;2;;;;;;;6.36;100;93954.71;;;;
2022/04/08 05:30:53;;;;;;;4.9;2;;;;;;;6.36;100;93954.71;;;;
2022/04/08 05:31:54;;;;;;;7.750001;2.35;;;;;;;6.38;100;93966.52;;;;
2022/04/08 05:32:55;;;;;;;7.750001;2.35;;;;;;;6.38;100;93966.52;;;;
2022/04/08 05:33:55;;;;;;;7.750001;2.35;;;;;;;6.38;100;93966.52;;;;
2022/04/08 05:34:56;;;;;;;7.750001;2.35;;;;;;;6.38;100;93966.52;;;;
2022/04/08 05:35:56;;;;;;;7.750001;2.35;;;;;;;6.38;100;93966.52;;;;
2022/04/08 05:36:57;;;;;;;7.750001;2.35;;;;;;;6.38;100;93966.52;;;;
2022/04/08 05:37:57;;;;;;;7.750001;2.35;;;;;;;6.38;100;93966.52;;;;
2022/04/08 05:38:58;;;;;;;7.750001;2.35;;;;;;;6.38;100;93966.52;;;;
2022/04/08 05:39:58;;;;;;;7.750001;2.35;;;;;;;6.38;100;93966.52;;;;
2022/04/08 05:40:59;;;;;;;7.750001;2.35;;;;;;;6.38;100;93966.52;;;;
2022/04/08 05:41:59;;;;;;;7.750001;2.35;;;;;;;6.38;100;93966.52;;;;
2022/04/08 05:43:00;;;;;;;5.25;2.35;;;;;;;6.42;100;93978.39;;;;
2022/04/08 05:44:00;;;;;;;5.25;2.35;;;;;;;6.42;100;93978.39;;;;
2022/04/08 05:45:01;;;;;;;5.25;2.35;;;;;;;6.42;100;93978.39;;;;
2022/04/08 05:46:02;;;;;;;5.25;2.35;;;;;;;6.42;100;93978.39;;;;
2022/04/08 05:47:02;;;;;;;5.25;2.35;;;;;;;6.42;100;93978.39;;;;
2022/04/08 05:48:03;;;;;;;5.25;2.35;;;;;;;6.42;100;93978.39;;;;
2022/04/08 05:49:05;;;;;;;5.25;2.35;;;;;;;6.42;100;93978.39;;;;
2022/04/08 05:50:06;;;;;;;5.25;2.35;;;;;;;6.42;100;93978.39;;;;
2022/04/08 05:51:07;;;;;;;5.25;2.35;;;;;;;6.42;100;93978.39;;;;
2022/04/08 05:52:08;;;;;;;5.25;2.35;;;;;;;6.42;100;93978.39;;;;
2022/04/08 05:53:08;;;;;;;5.95;2.25;;;;;;;6.5;100;93981.07;;;;
2022/04/08 05:54:09;;;;;;;5.95;2.25;;;;;;;6.5;100;93981.07;;;;
2022/04/08 05:55:09;;;;;;;5.95;2.25;;;;;;;6.5;100;93981.07;;;;
2022/04/08 05:56:10;;;;;;;5.95;2.25;;;;;;;6.5;100;93981.07;;;;
2022/04/08 05:57:10;;;;;;;5.95;2.25;;;;;;;6.5;100;93981.07;;;;
2022/04/08 05:58:11;;;;;;;5.95;2.25;;;;;;;6.5;100;93981.07;;;;
2022/04/08 05:59:11;;;;;;;5.95;2.25;;;;;;;6.5;100;93981.07;;;;
2022/04/08 06:00:13;;;;;;;5.95;2.25;;;;;;;6.5;100;93981.07;;;;
2022/04/08 06:01:15;;;;;;;5.95;2.25;;;;;;;6.5;100;93981.07;;;;
2022/04/08 06:02:15;;;;;;;5.95;2.25;;;;;;;6.5;100;93981.07;;;;
2022/04/08 06:03:16;;;;;;;5.95;2.25;;;;;;;6.5;100;93981.07;;;;
2022/04/08 06:04:17;;;;;;;7.3;2.3;;;;;;;6.67;100;93981.09;;;;
2022/04/08 06:05:18;;;;;;;7.3;2.3;;;;;;;6.67;100;93981.09;;;;
2022/04/08 06:06:19;;;;;;;7.3;2.3;;;;;;;6.67;100;93981.09;;;;
2022/04/08 06:07:19;;;;;;;7.3;2.3;;;;;;;6.67;100;93981.09;;;;
2022/04/08 06:08:22;;;;;;;7.3;2.3;;;;;;;6.67;100;93981.09;;;;
2022/04/08 06:09:23;;;;;;;7.3;2.3;;;;;;;6.67;100;93981.09;;;;
2022/04/08 06:10:24;;;;;;;7.3;2.3;;;;;;;6.67;100;93981.09;;;;
2022/04/08 06:11:24;;;;;;;7.3;2.3;;;;;;;6.67;100;93981.09;;;;
2022/04/08 06:12:25;;;;;;;7.3;2.3;;;;;;;6.67;100;93981.09;;;;
2022/04/08 06:13:26;;;;;;;7.3;2.3;;;;;;;6.67;100;93981.09;;;;
2022/04/08 06:14:26;;;;;;;6.000001;2.45;;;;;;;6.77;100;93990.63;;;;
2022/04/08 06:15:27;;;;;;;6.000001;2.45;;;;;;;6.77;100;93990.63;;;;
2022/04/08 06:16:28;;;;;;;6.000001;2.45;;;;;;;6.77;100;93990.63;;;;
2022/04/08 06:17:28;;;;;;;6.000001;2.45;;;;;;;6.77;100;93990.63;;;;
2022/04/08 06:18:35;;;;;;;6.000001;2.45;;;;;;;6.77;100;93990.63;;;;